sensor_id;sensor_type;location;lat;lon;timestamp;temperature;humidity
54126;DHT22;40360;52.992;6.796;2022-07-29T00:00:40;14.70;99.90
54126;DHT22;40360;52.992;6.796;2022-07-29T00:03:06;14.70;99.90
54126;DHT22;40360;52.992;6.796;2022-07-29T00:05:31;14.70;99.90
54126;DHT22;40360;52.992;6.796;2022-07-29T00:07:57;15.10;99.90
54126;DHT22;40360;52.992;6.796;2022-07-29T00:10:22;15.10;99.90
54126;DHT22;40360;52.992;6.796;2022-07-29T00:12:48;14.60;99.90
54126;DHT22;40360;52.992;6.796;2022-07-29T00:15:14;15.40;99.90
54126;DHT22;40360;52.992;6.796;2022-07-29T00:17:39;14.60;99.90
54126;DHT22;40360;52.992;6.796;2022-07-29T00:20:05;14.60;99.90
54126;DHT22;40360;52.992;6.796;2022-07-29T00:22:31;14.50;99.90
54126;DHT22;40360;52.992;6.796;2022-07-29T00:24:57;14.60;99.90
54126;DHT22;40360;52.992;6.796;2022-07-29T00:27:23;14.50;99.90
54126;DHT22;40360;52.992;6.796;2022-07-29T00:29:48;14.50;99.90
54126;DHT22;40360;52.992;6.796;2022-07-29T00:32:14;15.50;99.90
54126;DHT22;40360;52.992;6.796;2022-07-29T00:34:40;15.40;99.90
54126;DHT22;40360;52.992;6.796;2022-07-29T00:37:24;14.50;99.90
54126;DHT22;40360;52.992;6.796;2022-07-29T00:39:50;14.50;99.90
54126;DHT22;40360;52.992;6.796;2022-07-29T00:42:16;14.50;99.90
54126;DHT22;40360;52.992;6.796;2022-07-29T00:44:42;14.50;99.90
54126;DHT22;40360;52.992;6.796;2022-07-29T00:47:11;14.50;99.90
54126;DHT22;40360;52.992;6.796;2022-07-29T00:49:39;14.50;99.90
54126;DHT22;40360;52.992;6.796;2022-07-29T00:52:05;14.50;99.90
54126;DHT22;40360;52.992;6.796;2022-07-29T00:54:32;14.60;99.90
54126;DHT22;40360;52.992;6.796;2022-07-29T00:56:58;14.60;99.90
54126;DHT22;40360;52.992;6.796;2022-07-29T00:59:27;14.60;99.90
54126;DHT22;40360;52.992;6.796;2022-07-29T01:01:54;14.60;99.90
54126;DHT22;40360;52.992;6.796;2022-07-29T01:04:21;14.60;99.90
54126;DHT22;40360;52.992;6.796;2022-07-29T01:06:47;14.60;99.90
54126;DHT22;40360;52.992;6.796;2022-07-29T01:09:14;14.60;99.90
54126;DHT22;40360;52.992;6.796;2022-07-29T01:11:40;14.60;99.90
54126;DHT22;40360;52.992;6.796;2022-07-29T01:14:07;14.60;99.90
54126;DHT22;40360;52.992;6.796;2022-07-29T01:16:43;14.70;99.90
54126;DHT22;40360;52.992;6.796;2022-07-29T01:19:45;14.60;99.90
54126;DHT22;40360;52.992;6.796;2022-07-29T01:25:43;14.70;99.90
54126;DHT22;40360;52.992;6.796;2022-07-29T01:28:45;14.70;99.90
54126;DHT22;40360;52.992;6.796;2022-07-29T01:31:16;14.70;99.90
54126;DHT22;40360;52.992;6.796;2022-07-29T01:33:46;14.70;99.90
54126;DHT22;40360;52.992;6.796;2022-07-29T01:36:25;14.70;99.90
54126;DHT22;40360;52.992;6.796;2022-07-29T01:39:16;14.70;99.90
54126;DHT22;40360;52.992;6.796;2022-07-29T01:41:50;14.70;99.90
54126;DHT22;40360;52.992;6.796;2022-07-29T01:44:21;14.70;99.90
54126;DHT22;40360;52.992;6.796;2022-07-29T01:46:55;14.60;99.90
54126;DHT22;40360;52.992;6.796;2022-07-29T01:49:27;14.70;99.90
54126;DHT22;40360;52.992;6.796;2022-07-29T01:52:07;14.60;99.90
54126;DHT22;40360;52.992;6.796;2022-07-29T01:54:47;14.60;99.90
54126;DHT22;40360;52.992;6.796;2022-07-29T01:57:15;14.60;99.90
54126;DHT22;40360;52.992;6.796;2022-07-29T01:59:46;14.60;99.90
54126;DHT22;40360;52.992;6.796;2022-07-29T02:02:15;14.60;99.90
54126;DHT22;40360;52.992;6.796;2022-07-29T02:04:43;14.60;99.90
54126;DHT22;40360;52.992;6.796;2022-07-29T02:07:13;14.60;99.90
54126;DHT22;40360;52.992;6.796;2022-07-29T02:09:41;14.60;99.90
54126;DHT22;40360;52.992;6.796;2022-07-29T02:12:08;14.60;99.90
54126;DHT22;40360;52.992;6.796;2022-07-29T02:14:39;14.60;99.90
54126;DHT22;40360;52.992;6.796;2022-07-29T02:17:06;14.60;99.90
54126;DHT22;40360;52.992;6.796;2022-07-29T02:19:32;14.60;99.90
54126;DHT22;40360;52.992;6.796;2022-07-29T02:22:00;14.50;99.90
54126;DHT22;40360;52.992;6.796;2022-07-29T02:24:28;14.50;99.90
54126;DHT22;40360;52.992;6.796;2022-07-29T02:26:56;14.50;99.90
54126;DHT22;40360;52.992;6.796;2022-07-29T02:29:24;14.50;99.90
54126;DHT22;40360;52.992;6.796;2022-07-29T02:31:51;14.50;99.90
54126;DHT22;40360;52.992;6.796;2022-07-29T02:34:19;14.50;99.90
54126;DHT22;40360;52.992;6.796;2022-07-29T02:36:46;14.40;99.90
54126;DHT22;40360;52.992;6.796;2022-07-29T02:39:14;14.40;99.90
54126;DHT22;40360;52.992;6.796;2022-07-29T02:41:48;14.90;99.90
54126;DHT22;40360;52.992;6.796;2022-07-29T02:44:19;14.40;99.90
54126;DHT22;40360;52.992;6.796;2022-07-29T02:46:58;14.30;99.90
54126;DHT22;40360;52.992;6.796;2022-07-29T02:49:40;14.30;99.90
54126;DHT22;40360;52.992;6.796;2022-07-29T02:52:35;14.30;99.90
54126;DHT22;40360;52.992;6.796;2022-07-29T02:58:29;14.30;99.90
54126;DHT22;40360;52.992;6.796;2022-07-29T03:00:58;14.30;99.90
54126;DHT22;40360;52.992;6.796;2022-07-29T03:03:27;14.30;99.90
54126;DHT22;40360;52.992;6.796;2022-07-29T03:05:57;14.30;99.90
54126;DHT22;40360;52.992;6.796;2022-07-29T03:08:26;14.30;99.90
54126;DHT22;40360;52.992;6.796;2022-07-29T03:10:53;14.30;99.90
54126;DHT22;40360;52.992;6.796;2022-07-29T03:13:20;14.30;99.90
54126;DHT22;40360;52.992;6.796;2022-07-29T03:15:47;14.30;99.90
54126;DHT22;40360;52.992;6.796;2022-07-29T03:18:13;14.30;99.90
54126;DHT22;40360;52.992;6.796;2022-07-29T03:20:40;14.30;99.90
54126;DHT22;40360;52.992;6.796;2022-07-29T03:23:06;14.30;99.90
54126;DHT22;40360;52.992;6.796;2022-07-29T03:25:33;15.00;99.90
54126;DHT22;40360;52.992;6.796;2022-07-29T03:27:59;14.30;99.90
54126;DHT22;40360;52.992;6.796;2022-07-29T03:30:24;14.30;99.90
54126;DHT22;40360;52.992;6.796;2022-07-29T03:32:51;14.30;99.90
54126;DHT22;40360;52.992;6.796;2022-07-29T03:35:17;14.30;99.90
54126;DHT22;40360;52.992;6.796;2022-07-29T03:37:43;14.30;99.90
54126;DHT22;40360;52.992;6.796;2022-07-29T03:40:11;14.30;99.90
54126;DHT22;40360;52.992;6.796;2022-07-29T03:42:40;14.30;99.90
54126;DHT22;40360;52.992;6.796;2022-07-29T03:45:12;14.30;99.90
54126;DHT22;40360;52.992;6.796;2022-07-29T03:47:42;14.20;99.90
54126;DHT22;40360;52.992;6.796;2022-07-29T03:50:11;14.70;99.90
54126;DHT22;40360;52.992;6.796;2022-07-29T03:52:38;14.30;99.90
54126;DHT22;40360;52.992;6.796;2022-07-29T03:55:05;14.50;99.90
54126;DHT22;40360;52.992;6.796;2022-07-29T03:57:32;14.20;99.90
54126;DHT22;40360;52.992;6.796;2022-07-29T03:59:58;14.20;99.90
54126;DHT22;40360;52.992;6.796;2022-07-29T04:02:25;14.20;99.90
54126;DHT22;40360;52.992;6.796;2022-07-29T04:04:51;14.20;99.90
54126;DHT22;40360;52.992;6.796;2022-07-29T04:07:17;14.20;99.90
54126;DHT22;40360;52.992;6.796;2022-07-29T04:09:42;14.20;99.90
54126;DHT22;40360;52.992;6.796;2022-07-29T04:12:08;14.20;99.90
54126;DHT22;40360;52.992;6.796;2022-07-29T04:14:34;14.20;99.90
54126;DHT22;40360;52.992;6.796;2022-07-29T04:17:01;14.20;99.90
54126;DHT22;40360;52.992;6.796;2022-07-29T04:19:27;14.20;99.90
54126;DHT22;40360;52.992;6.796;2022-07-29T04:21:53;14.20;99.90
54126;DHT22;40360;52.992;6.796;2022-07-29T04:24:18;14.20;99.90
54126;DHT22;40360;52.992;6.796;2022-07-29T04:26:46;14.20;99.90
54126;DHT22;40360;52.992;6.796;2022-07-29T04:29:12;14.20;99.90
54126;DHT22;40360;52.992;6.796;2022-07-29T04:31:39;14.20;99.90
54126;DHT22;40360;52.992;6.796;2022-07-29T04:34:05;14.20;99.90
54126;DHT22;40360;52.992;6.796;2022-07-29T04:36:30;14.20;99.90
54126;DHT22;40360;52.992;6.796;2022-07-29T04:38:56;14.20;99.90
54126;DHT22;40360;52.992;6.796;2022-07-29T04:41:22;15.00;99.90
54126;DHT22;40360;52.992;6.796;2022-07-29T04:43:47;14.20;99.90
54126;DHT22;40360;52.992;6.796;2022-07-29T04:46:13;14.20;99.90
54126;DHT22;40360;52.992;6.796;2022-07-29T04:48:38;14.30;99.90
54126;DHT22;40360;52.992;6.796;2022-07-29T04:51:04;14.20;99.90
54126;DHT22;40360;52.992;6.796;2022-07-29T04:53:29;14.30;99.90
54126;DHT22;40360;52.992;6.796;2022-07-29T04:55:55;14.40;99.90
54126;DHT22;40360;52.992;6.796;2022-07-29T04:58:21;14.40;99.90
54126;DHT22;40360;52.992;6.796;2022-07-29T05:00:49;14.40;99.90
54126;DHT22;40360;52.992;6.796;2022-07-29T05:21:44;15.30;99.90
54126;DHT22;40360;52.992;6.796;2022-07-29T05:24:09;15.40;99.90
54126;DHT22;40360;52.992;6.796;2022-07-29T05:26:35;14.70;99.90
54126;DHT22;40360;52.992;6.796;2022-07-29T05:29:01;14.80;99.90
54126;DHT22;40360;52.992;6.796;2022-07-29T05:31:26;14.80;99.90
54126;DHT22;40360;52.992;6.796;2022-07-29T05:33:52;14.80;99.90
54126;DHT22;40360;52.992;6.796;2022-07-29T05:36:18;14.90;99.90
54126;DHT22;40360;52.992;6.796;2022-07-29T05:38:44;14.90;99.90
54126;DHT22;40360;52.992;6.796;2022-07-29T05:41:10;14.90;99.90
54126;DHT22;40360;52.992;6.796;2022-07-29T05:43:36;14.90;99.90
54126;DHT22;40360;52.992;6.796;2022-07-29T05:46:01;15.00;99.90
54126;DHT22;40360;52.992;6.796;2022-07-29T05:48:27;15.00;99.90
54126;DHT22;40360;52.992;6.796;2022-07-29T05:50:53;15.00;99.90
54126;DHT22;40360;52.992;6.796;2022-07-29T05:53:19;15.00;99.90
54126;DHT22;40360;52.992;6.796;2022-07-29T05:55:45;15.10;99.90
54126;DHT22;40360;52.992;6.796;2022-07-29T05:58:11;15.60;99.90
54126;DHT22;40360;52.992;6.796;2022-07-29T06:00:36;15.10;99.90
54126;DHT22;40360;52.992;6.796;2022-07-29T06:03:02;15.50;99.90
54126;DHT22;40360;52.992;6.796;2022-07-29T06:05:27;15.30;99.90
54126;DHT22;40360;52.992;6.796;2022-07-29T06:07:53;15.30;99.90
54126;DHT22;40360;52.992;6.796;2022-07-29T06:10:19;15.30;99.90
54126;DHT22;40360;52.992;6.796;2022-07-29T06:12:44;15.30;99.90
54126;DHT22;40360;52.992;6.796;2022-07-29T06:15:10;15.30;99.90
54126;DHT22;40360;52.992;6.796;2022-07-29T06:17:36;15.30;99.90
54126;DHT22;40360;52.992;6.796;2022-07-29T06:20:02;15.50;99.90
54126;DHT22;40360;52.992;6.796;2022-07-29T06:22:28;15.40;99.90
54126;DHT22;40360;52.992;6.796;2022-07-29T06:24:54;15.50;99.90
54126;DHT22;40360;52.992;6.796;2022-07-29T06:27:20;15.70;99.90
54126;DHT22;40360;52.992;6.796;2022-07-29T06:29:45;16.00;99.90
54126;DHT22;40360;52.992;6.796;2022-07-29T06:32:11;15.70;99.90
54126;DHT22;40360;52.992;6.796;2022-07-29T06:34:36;15.80;99.90
54126;DHT22;40360;52.992;6.796;2022-07-29T06:37:06;15.90;99.90
54126;DHT22;40360;52.992;6.796;2022-07-29T06:39:36;15.90;99.90
54126;DHT22;40360;52.992;6.796;2022-07-29T06:42:05;16.20;99.90
54126;DHT22;40360;52.992;6.796;2022-07-29T06:44:31;16.10;99.90
54126;DHT22;40360;52.992;6.796;2022-07-29T06:46:59;16.30;99.90
54126;DHT22;40360;52.992;6.796;2022-07-29T06:49:25;16.10;99.90
54126;DHT22;40360;52.992;6.796;2022-07-29T06:51:52;16.20;99.90
54126;DHT22;40360;52.992;6.796;2022-07-29T06:54:18;16.20;99.90
54126;DHT22;40360;52.992;6.796;2022-07-29T06:56:43;16.30;99.90
54126;DHT22;40360;52.992;6.796;2022-07-29T06:59:10;16.30;99.90
54126;DHT22;40360;52.992;6.796;2022-07-29T07:01:40;16.30;99.90
54126;DHT22;40360;52.992;6.796;2022-07-29T07:04:07;16.30;99.90
54126;DHT22;40360;52.992;6.796;2022-07-29T07:06:34;16.40;99.90
54126;DHT22;40360;52.992;6.796;2022-07-29T07:09:00;16.40;99.90
54126;DHT22;40360;52.992;6.796;2022-07-29T07:11:26;16.50;99.90
54126;DHT22;40360;52.992;6.796;2022-07-29T07:13:51;16.50;99.90
54126;DHT22;40360;52.992;6.796;2022-07-29T07:16:17;16.50;99.90
54126;DHT22;40360;52.992;6.796;2022-07-29T07:18:43;16.60;99.90
54126;DHT22;40360;52.992;6.796;2022-07-29T07:21:10;16.60;99.90
54126;DHT22;40360;52.992;6.796;2022-07-29T07:23:36;17.20;99.90
54126;DHT22;40360;52.992;6.796;2022-07-29T07:26:01;16.70;99.90
54126;DHT22;40360;52.992;6.796;2022-07-29T07:28:28;16.70;99.90
54126;DHT22;40360;52.992;6.796;2022-07-29T07:30:54;16.80;99.90
54126;DHT22;40360;52.992;6.796;2022-07-29T07:33:19;17.20;99.90
54126;DHT22;40360;52.992;6.796;2022-07-29T07:35:45;17.00;99.90
54126;DHT22;40360;52.992;6.796;2022-07-29T07:38:11;17.60;99.90
54126;DHT22;40360;52.992;6.796;2022-07-29T07:40:37;17.30;99.90
54126;DHT22;40360;52.992;6.796;2022-07-29T07:43:03;17.20;99.90
54126;DHT22;40360;52.992;6.796;2022-07-29T07:45:28;17.30;99.90
54126;DHT22;40360;52.992;6.796;2022-07-29T07:47:54;17.30;99.90
54126;DHT22;40360;52.992;6.796;2022-07-29T07:50:20;17.40;99.90
54126;DHT22;40360;52.992;6.796;2022-07-29T07:52:47;17.60;99.90
54126;DHT22;40360;52.992;6.796;2022-07-29T07:55:13;17.60;99.90
54126;DHT22;40360;52.992;6.796;2022-07-29T07:57:39;17.70;99.90
54126;DHT22;40360;52.992;6.796;2022-07-29T08:00:05;17.70;99.90
54126;DHT22;40360;52.992;6.796;2022-07-29T08:02:31;17.80;99.90
54126;DHT22;40360;52.992;6.796;2022-07-29T08:04:57;17.90;99.90
54126;DHT22;40360;52.992;6.796;2022-07-29T08:07:22;18.00;99.90
54126;DHT22;40360;52.992;6.796;2022-07-29T08:09:48;18.20;99.90
54126;DHT22;40360;52.992;6.796;2022-07-29T08:12:14;18.20;99.90
54126;DHT22;40360;52.992;6.796;2022-07-29T08:14:39;18.30;99.90
54126;DHT22;40360;52.992;6.796;2022-07-29T08:17:05;18.30;99.90
54126;DHT22;40360;52.992;6.796;2022-07-29T08:19:30;18.40;99.90
54126;DHT22;40360;52.992;6.796;2022-07-29T08:21:56;18.60;99.90
54126;DHT22;40360;52.992;6.796;2022-07-29T08:24:22;18.50;99.90
54126;DHT22;40360;52.992;6.796;2022-07-29T08:27:07;18.50;99.90
54126;DHT22;40360;52.992;6.796;2022-07-29T08:29:32;18.60;99.90
54126;DHT22;40360;52.992;6.796;2022-07-29T08:31:58;18.60;99.90
54126;DHT22;40360;52.992;6.796;2022-07-29T08:34:23;19.00;99.90
54126;DHT22;40360;52.992;6.796;2022-07-29T08:36:49;18.60;99.90
54126;DHT22;40360;52.992;6.796;2022-07-29T08:39:14;18.70;99.90
54126;DHT22;40360;52.992;6.796;2022-07-29T08:41:40;19.10;99.90
54126;DHT22;40360;52.992;6.796;2022-07-29T08:44:06;18.60;99.90
54126;DHT22;40360;52.992;6.796;2022-07-29T08:46:31;18.60;99.90
54126;DHT22;40360;52.992;6.796;2022-07-29T08:48:57;18.60;99.90
54126;DHT22;40360;52.992;6.796;2022-07-29T08:51:23;18.60;99.90
54126;DHT22;40360;52.992;6.796;2022-07-29T08:53:50;18.50;99.90
54126;DHT22;40360;52.992;6.796;2022-07-29T08:56:18;18.50;99.90
54126;DHT22;40360;52.992;6.796;2022-07-29T08:58:44;18.90;99.90
54126;DHT22;40360;52.992;6.796;2022-07-29T09:01:12;18.40;99.90
54126;DHT22;40360;52.992;6.796;2022-07-29T09:03:40;18.40;99.90
54126;DHT22;40360;52.992;6.796;2022-07-29T09:06:05;18.40;99.90
54126;DHT22;40360;52.992;6.796;2022-07-29T09:08:32;18.40;99.90
54126;DHT22;40360;52.992;6.796;2022-07-29T09:10:58;18.40;99.90
54126;DHT22;40360;52.992;6.796;2022-07-29T09:13:25;18.50;99.90
54126;DHT22;40360;52.992;6.796;2022-07-29T09:15:51;18.60;99.90
54126;DHT22;40360;52.992;6.796;2022-07-29T09:18:37;18.80;99.90
54126;DHT22;40360;52.992;6.796;2022-07-29T09:21:04;18.90;99.90
54126;DHT22;40360;52.992;6.796;2022-07-29T09:24:10;19.70;99.90
54126;DHT22;40360;52.992;6.796;2022-07-29T09:26:39;19.10;99.90
54126;DHT22;40360;52.992;6.796;2022-07-29T09:29:23;19.10;99.90
54126;DHT22;40360;52.992;6.796;2022-07-29T09:31:51;19.20;99.90
54126;DHT22;40360;52.992;6.796;2022-07-29T09:34:25;19.30;99.90
54126;DHT22;40360;52.992;6.796;2022-07-29T09:36:52;19.40;99.90
54126;DHT22;40360;52.992;6.796;2022-07-29T09:39:39;19.30;99.90
54126;DHT22;40360;52.992;6.796;2022-07-29T09:42:11;19.40;99.90
54126;DHT22;40360;52.992;6.796;2022-07-29T09:47:07;19.50;99.90
54126;DHT22;40360;52.992;6.796;2022-07-29T09:49:54;19.50;99.90
54126;DHT22;40360;52.992;6.796;2022-07-29T09:52:20;19.50;99.90
54126;DHT22;40360;52.992;6.796;2022-07-29T09:54:46;19.60;99.90
54126;DHT22;40360;52.992;6.796;2022-07-29T10:00:05;19.70;99.90
54126;DHT22;40360;52.992;6.796;2022-07-29T10:02:33;19.70;99.90
54126;DHT22;40360;52.992;6.796;2022-07-29T10:05:01;19.70;99.90
54126;DHT22;40360;52.992;6.796;2022-07-29T10:07:44;19.60;99.90
54126;DHT22;40360;52.992;6.796;2022-07-29T10:10:09;19.60;99.90
54126;DHT22;40360;52.992;6.796;2022-07-29T10:12:50;19.60;99.90
54126;DHT22;40360;52.992;6.796;2022-07-29T10:15:16;20.40;99.90
54126;DHT22;40360;52.992;6.796;2022-07-29T10:17:42;20.30;99.90
54126;DHT22;40360;52.992;6.796;2022-07-29T10:20:09;20.40;99.90
54126;DHT22;40360;52.992;6.796;2022-07-29T10:22:35;19.80;99.90
54126;DHT22;40360;52.992;6.796;2022-07-29T10:25:01;19.80;99.90
54126;DHT22;40360;52.992;6.796;2022-07-29T10:27:27;19.90;99.90
54126;DHT22;40360;52.992;6.796;2022-07-29T10:29:54;20.10;99.90
54126;DHT22;40360;52.992;6.796;2022-07-29T10:35:12;20.20;99.90
54126;DHT22;40360;52.992;6.796;2022-07-29T10:40:47;20.30;99.90
54126;DHT22;40360;52.992;6.796;2022-07-29T10:43:34;20.40;99.90
54126;DHT22;40360;52.992;6.796;2022-07-29T10:46:02;20.50;99.90
54126;DHT22;40360;52.992;6.796;2022-07-29T10:48:28;20.70;99.90
54126;DHT22;40360;52.992;6.796;2022-07-29T10:51:02;21.00;99.90
54126;DHT22;40360;52.992;6.796;2022-07-29T10:53:50;21.00;99.90
54126;DHT22;40360;52.992;6.796;2022-07-29T11:01:53;21.10;99.90
54126;DHT22;40360;52.992;6.796;2022-07-29T11:07:11;21.10;99.90
54126;DHT22;40360;52.992;6.796;2022-07-29T11:09:38;21.10;99.90
54126;DHT22;40360;52.992;6.796;2022-07-29T11:12:45;21.10;99.90
54126;DHT22;40360;52.992;6.796;2022-07-29T11:14:59;21.10;99.90
54126;DHT22;40360;52.992;6.796;2022-07-29T11:17:27;21.10;99.90
54126;DHT22;40360;52.992;6.796;2022-07-29T11:20:32;21.80;99.90
54126;DHT22;40360;52.992;6.796;2022-07-29T11:22:58;21.10;99.90
54126;DHT22;40360;52.992;6.796;2022-07-29T11:25:24;21.20;99.90
54126;DHT22;40360;52.992;6.796;2022-07-29T11:27:52;21.00;99.90
54126;DHT22;40360;52.992;6.796;2022-07-29T11:30:20;21.10;99.90
54126;DHT22;40360;52.992;6.796;2022-07-29T11:32:46;21.50;99.90
54126;DHT22;40360;52.992;6.796;2022-07-29T11:35:19;21.10;99.90
54126;DHT22;40360;52.992;6.796;2022-07-29T11:38:26;21.10;99.90
54126;DHT22;40360;52.992;6.796;2022-07-29T11:43:53;21.10;99.90
54126;DHT22;40360;52.992;6.796;2022-07-29T11:46:50;21.20;99.90
54126;DHT22;40360;52.992;6.796;2022-07-29T11:49:20;21.20;99.90
54126;DHT22;40360;52.992;6.796;2022-07-29T11:51:56;21.40;99.90
54126;DHT22;40360;52.992;6.796;2022-07-29T11:54:30;21.50;99.90
54126;DHT22;40360;52.992;6.796;2022-07-29T11:56:57;21.50;99.90
54126;DHT22;40360;52.992;6.796;2022-07-29T11:59:24;21.60;99.90
54126;DHT22;40360;52.992;6.796;2022-07-29T12:01:54;22.40;99.90
54126;DHT22;40360;52.992;6.796;2022-07-29T12:04:20;21.80;99.90
54126;DHT22;40360;52.992;6.796;2022-07-29T12:06:53;22.50;99.90
54126;DHT22;40360;52.992;6.796;2022-07-29T12:09:20;21.80;99.90
54126;DHT22;40360;52.992;6.796;2022-07-29T12:11:47;22.20;99.90
54126;DHT22;40360;52.992;6.796;2022-07-29T12:14:29;22.00;99.90
54126;DHT22;40360;52.992;6.796;2022-07-29T12:16:55;22.10;99.90
54126;DHT22;40360;52.992;6.796;2022-07-29T12:19:20;22.10;99.90
54126;DHT22;40360;52.992;6.796;2022-07-29T12:21:55;22.20;99.90
54126;DHT22;40360;52.992;6.796;2022-07-29T12:24:23;23.00;99.90
54126;DHT22;40360;52.992;6.796;2022-07-29T12:26:54;23.00;99.90
54126;DHT22;40360;52.992;6.796;2022-07-29T12:29:19;22.40;99.90
54126;DHT22;40360;52.992;6.796;2022-07-29T12:31:45;22.50;99.90
54126;DHT22;40360;52.992;6.796;2022-07-29T12:34:13;22.50;99.90
54126;DHT22;40360;52.992;6.796;2022-07-29T12:36:41;22.70;99.90
54126;DHT22;40360;52.992;6.796;2022-07-29T12:39:08;22.60;99.90
54126;DHT22;40360;52.992;6.796;2022-07-29T12:41:35;22.60;99.90
54126;DHT22;40360;52.992;6.796;2022-07-29T12:44:00;22.60;99.90
54126;DHT22;40360;52.992;6.796;2022-07-29T12:46:26;22.60;99.90
54126;DHT22;40360;52.992;6.796;2022-07-29T12:48:53;22.50;99.90
54126;DHT22;40360;52.992;6.796;2022-07-29T12:51:37;22.60;99.90
54126;DHT22;40360;52.992;6.796;2022-07-29T12:54:07;22.60;99.90
54126;DHT22;40360;52.992;6.796;2022-07-29T12:56:33;22.90;99.90
54126;DHT22;40360;52.992;6.796;2022-07-29T12:58:59;23.40;99.90
54126;DHT22;40360;52.992;6.796;2022-07-29T13:01:24;22.90;99.90
54126;DHT22;40360;52.992;6.796;2022-07-29T13:06:42;23.20;99.90
54126;DHT22;40360;52.992;6.796;2022-07-29T13:09:13;23.50;99.90
54126;DHT22;40360;52.992;6.796;2022-07-29T13:11:40;23.60;99.90
54126;DHT22;40360;52.992;6.796;2022-07-29T13:14:08;23.80;99.90
54126;DHT22;40360;52.992;6.796;2022-07-29T13:16:35;24.40;99.90
54126;DHT22;40360;52.992;6.796;2022-07-29T13:19:14;24.10;99.90
54126;DHT22;40360;52.992;6.796;2022-07-29T13:21:39;24.40;99.90
54126;DHT22;40360;52.992;6.796;2022-07-29T13:24:06;24.70;99.90
54126;DHT22;40360;52.992;6.796;2022-07-29T13:26:32;25.00;99.90
54126;DHT22;40360;52.992;6.796;2022-07-29T13:28:58;24.80;99.90
54126;DHT22;40360;52.992;6.796;2022-07-29T13:31:23;25.00;99.90
54126;DHT22;40360;52.992;6.796;2022-07-29T13:33:49;25.50;99.90
54126;DHT22;40360;52.992;6.796;2022-07-29T13:36:15;25.90;99.90
54126;DHT22;40360;52.992;6.796;2022-07-29T13:38:40;26.30;99.90
54126;DHT22;40360;52.992;6.796;2022-07-29T13:41:06;27.00;99.90
54126;DHT22;40360;52.992;6.796;2022-07-29T13:43:32;27.70;99.90
54126;DHT22;40360;52.992;6.796;2022-07-29T13:45:57;27.10;99.90
54126;DHT22;40360;52.992;6.796;2022-07-29T13:48:23;27.20;99.70
54126;DHT22;40360;52.992;6.796;2022-07-29T13:50:48;27.00;99.60
54126;DHT22;40360;52.992;6.796;2022-07-29T13:53:14;26.60;99.70
54126;DHT22;40360;52.992;6.796;2022-07-29T13:55:39;26.90;99.90
54126;DHT22;40360;52.992;6.796;2022-07-29T13:58:05;26.50;99.30
54126;DHT22;40360;52.992;6.796;2022-07-29T14:00:31;26.30;99.70
54126;DHT22;40360;52.992;6.796;2022-07-29T14:02:56;26.30;99.60
54126;DHT22;40360;52.992;6.796;2022-07-29T14:05:23;26.40;99.60
54126;DHT22;40360;52.992;6.796;2022-07-29T14:07:48;26.60;99.80
54126;DHT22;40360;52.992;6.796;2022-07-29T14:10:14;26.80;99.30
54126;DHT22;40360;52.992;6.796;2022-07-29T14:12:40;26.70;99.10
54126;DHT22;40360;52.992;6.796;2022-07-29T14:15:07;26.70;99.20
54126;DHT22;40360;52.992;6.796;2022-07-29T14:17:33;26.60;99.00
54126;DHT22;40360;52.992;6.796;2022-07-29T14:19:59;26.40;98.70
54126;DHT22;40360;52.992;6.796;2022-07-29T14:22:25;26.30;99.30
54126;DHT22;40360;52.992;6.796;2022-07-29T14:24:50;26.10;99.60
54126;DHT22;40360;52.992;6.796;2022-07-29T14:27:19;26.00;99.60
54126;DHT22;40360;52.992;6.796;2022-07-29T14:29:45;26.00;99.80
54126;DHT22;40360;52.992;6.796;2022-07-29T14:32:10;26.20;99.90
54126;DHT22;40360;52.992;6.796;2022-07-29T14:34:37;25.50;99.30
54126;DHT22;40360;52.992;6.796;2022-07-29T14:37:04;25.80;99.40
54126;DHT22;40360;52.992;6.796;2022-07-29T14:39:31;25.20;99.20
54126;DHT22;40360;52.992;6.796;2022-07-29T14:41:57;25.20;99.60
54126;DHT22;40360;52.992;6.796;2022-07-29T14:44:22;25.40;99.50
54126;DHT22;40360;52.992;6.796;2022-07-29T14:46:49;25.10;99.90
54126;DHT22;40360;52.992;6.796;2022-07-29T14:49:15;25.00;99.90
54126;DHT22;40360;52.992;6.796;2022-07-29T14:51:40;25.10;99.90
54126;DHT22;40360;52.992;6.796;2022-07-29T14:54:06;25.20;99.90
54126;DHT22;40360;52.992;6.796;2022-07-29T14:56:33;25.80;99.90
54126;DHT22;40360;52.992;6.796;2022-07-29T14:58:58;26.10;99.90
54126;DHT22;40360;52.992;6.796;2022-07-29T15:01:24;26.10;99.40
54126;DHT22;40360;52.992;6.796;2022-07-29T15:03:50;26.30;99.90
54126;DHT22;40360;52.992;6.796;2022-07-29T15:06:16;27.30;99.90
54126;DHT22;40360;52.992;6.796;2022-07-29T15:08:41;27.00;98.90
54126;DHT22;40360;52.992;6.796;2022-07-29T15:11:07;28.10;98.80
54126;DHT22;40360;52.992;6.796;2022-07-29T15:13:34;28.60;98.40
54126;DHT22;40360;52.992;6.796;2022-07-29T15:15:59;28.10;97.80
54126;DHT22;40360;52.992;6.796;2022-07-29T15:18:25;28.30;97.50
54126;DHT22;40360;52.992;6.796;2022-07-29T15:20:51;28.30;96.80
54126;DHT22;40360;52.992;6.796;2022-07-29T15:23:16;28.30;96.80
54126;DHT22;40360;52.992;6.796;2022-07-29T15:25:42;28.20;96.90
54126;DHT22;40360;52.992;6.796;2022-07-29T15:28:07;28.50;96.70
54126;DHT22;40360;52.992;6.796;2022-07-29T15:30:35;28.70;96.30
54126;DHT22;40360;52.992;6.796;2022-07-29T15:33:07;29.10;96.00
54126;DHT22;40360;52.992;6.796;2022-07-29T15:35:34;29.40;95.20
54126;DHT22;40360;52.992;6.796;2022-07-29T15:38:00;29.60;95.10
54126;DHT22;40360;52.992;6.796;2022-07-29T15:40:25;29.80;94.70
54126;DHT22;40360;52.992;6.796;2022-07-29T15:42:51;29.60;94.40
54126;DHT22;40360;52.992;6.796;2022-07-29T15:45:17;29.40;93.50
54126;DHT22;40360;52.992;6.796;2022-07-29T15:47:42;29.30;93.30
54126;DHT22;40360;52.992;6.796;2022-07-29T15:50:08;30.30;93.70
54126;DHT22;40360;52.992;6.796;2022-07-29T15:52:39;30.00;92.00
54126;DHT22;40360;52.992;6.796;2022-07-29T15:55:08;30.30;90.60
54126;DHT22;40360;52.992;6.796;2022-07-29T15:57:34;29.40;89.10
54126;DHT22;40360;52.992;6.796;2022-07-29T15:59:59;29.10;88.70
54126;DHT22;40360;52.992;6.796;2022-07-29T16:02:25;29.30;87.60
54126;DHT22;40360;52.992;6.796;2022-07-29T16:04:51;29.60;87.90
54126;DHT22;40360;52.992;6.796;2022-07-29T16:07:16;29.80;87.90
54126;DHT22;40360;52.992;6.796;2022-07-29T16:09:43;29.70;88.20
54126;DHT22;40360;52.992;6.796;2022-07-29T16:12:09;30.70;88.00
54126;DHT22;40360;52.992;6.796;2022-07-29T16:14:34;30.20;86.10
54126;DHT22;40360;52.992;6.796;2022-07-29T16:17:00;30.10;86.90
54126;DHT22;40360;52.992;6.796;2022-07-29T16:19:28;30.00;87.90
54126;DHT22;40360;52.992;6.796;2022-07-29T16:21:54;30.20;89.00
54126;DHT22;40360;52.992;6.796;2022-07-29T16:24:20;29.40;88.70
54126;DHT22;40360;52.992;6.796;2022-07-29T16:26:45;29.20;90.00